sensor_id;sensor_type;location;lat;lon;timestamp;temperature;humidity
3980;DHT22;2004;52.452;13.120;2023-03-01T00:06:26;-1.80;99.90
3980;DHT22;2004;52.452;13.120;2023-03-01T00:14:18;-1.90;99.90
3980;DHT22;2004;52.452;13.120;2023-03-01T00:22:09;-1.90;99.90
3980;DHT22;2004;52.452;13.120;2023-03-01T00:30:00;-2.00;99.90
3980;DHT22;2004;52.452;13.120;2023-03-01T00:37:51;-2.00;99.90
3980;DHT22;2004;52.452;13.120;2023-03-01T00:45:49;-2.10;99.90
3980;DHT22;2004;52.452;13.120;2023-03-01T00:53:40;-2.20;99.90
3980;DHT22;2004;52.452;13.120;2023-03-01T01:01:31;-2.20;99.90
3980;DHT22;2004;52.452;13.120;2023-03-01T01:09:23;-2.30;99.90
3980;DHT22;2004;52.452;13.120;2023-03-01T01:17:15;-2.40;99.90
3980;DHT22;2004;52.452;13.120;2023-03-01T01:25:07;-2.40;99.90
3980;DHT22;2004;52.452;13.120;2023-03-01T01:33:00;-2.50;99.90
3980;DHT22;2004;52.452;13.120;2023-03-01T01:40:54;-2.50;99.90
3980;DHT22;2004;52.452;13.120;2023-03-01T01:48:47;-2.60;99.90
3980;DHT22;2004;52.452;13.120;2023-03-01T01:56:42;-2.60;99.90
3980;DHT22;2004;52.452;13.120;2023-03-01T02:59:31;-3.00;99.90
3980;DHT22;2004;52.452;13.120;2023-03-01T03:07:29;-3.00;99.90
3980;DHT22;2004;52.452;13.120;2023-03-01T03:15:21;-3.00;99.90
3980;DHT22;2004;52.452;13.120;2023-03-01T03:23:12;-3.10;99.90
3980;DHT22;2004;52.452;13.120;2023-03-01T03:31:06;-3.10;99.90
3980;DHT22;2004;52.452;13.120;2023-03-01T03:38:57;-3.10;99.90
3980;DHT22;2004;52.452;13.120;2023-03-01T03:46:47;-3.20;99.90
3980;DHT22;2004;52.452;13.120;2023-03-01T03:54:38;-3.20;99.90
3980;DHT22;2004;52.452;13.120;2023-03-01T04:02:29;-3.20;99.90
3980;DHT22;2004;52.452;13.120;2023-03-01T04:10:19;-3.30;99.90
3980;DHT22;2004;52.452;13.120;2023-03-01T04:18:14;-3.30;99.90
3980;DHT22;2004;52.452;13.120;2023-03-01T04:26:05;-3.30;99.90
3980;DHT22;2004;52.452;13.120;2023-03-01T04:33:55;-3.30;99.90
3980;DHT22;2004;52.452;13.120;2023-03-01T04:41:46;-3.40;99.90
3980;DHT22;2004;52.452;13.120;2023-03-01T04:49:38;-3.40;99.90
3980;DHT22;2004;52.452;13.120;2023-03-01T04:57:29;-3.50;99.90
3980;DHT22;2004;52.452;13.120;2023-03-01T05:13:18;-3.50;99.90
3980;DHT22;2004;52.452;13.120;2023-03-01T05:21:13;-3.60;99.90
3980;DHT22;2004;52.452;13.120;2023-03-01T05:29:07;-3.60;99.90
3980;DHT22;2004;52.452;13.120;2023-03-01T05:37:00;-3.70;99.90
3980;DHT22;2004;52.452;13.120;2023-03-01T05:44:50;-3.70;99.90
3980;DHT22;2004;52.452;13.120;2023-03-01T05:52:41;-3.80;99.90
3980;DHT22;2004;52.452;13.120;2023-03-01T06:00:32;-3.80;99.90
3980;DHT22;2004;52.452;13.120;2023-03-01T06:08:22;-3.80;99.90
3980;DHT22;2004;52.452;13.120;2023-03-01T06:16:14;-3.80;99.90
3980;DHT22;2004;52.452;13.120;2023-03-01T06:24:05;-3.80;99.90
3980;DHT22;2004;52.452;13.120;2023-03-01T06:31:57;-3.80;99.90
3980;DHT22;2004;52.452;13.120;2023-03-01T06:39:48;-3.80;99.90
3980;DHT22;2004;52.452;13.120;2023-03-01T06:47:39;-3.70;99.90
3980;DHT22;2004;52.452;13.120;2023-03-01T06:55:31;-3.70;99.90
3980;DHT22;2004;52.452;13.120;2023-03-01T07:03:22;-3.60;99.90
3980;DHT22;2004;52.452;13.120;2023-03-01T07:11:13;-3.50;99.90
3980;DHT22;2004;52.452;13.120;2023-03-01T07:19:03;-3.40;99.90
3980;DHT22;2004;52.452;13.120;2023-03-01T07:26:56;-3.30;99.90
3980;DHT22;2004;52.452;13.120;2023-03-01T07:34:47;-3.20;99.90
3980;DHT22;2004;52.452;13.120;2023-03-01T07:42:38;-2.90;99.90
3980;DHT22;2004;52.452;13.120;2023-03-01T07:50:28;-2.70;99.90
3980;DHT22;2004;52.452;13.120;2023-03-01T07:58:19;-2.40;99.90
3980;DHT22;2004;52.452;13.120;2023-03-01T08:06:11;-2.20;99.90
3980;DHT22;2004;52.452;13.120;2023-03-01T08:14:02;-2.00;99.90
3980;DHT22;2004;52.452;13.120;2023-03-01T08:21:53;-1.80;99.90
3980;DHT22;2004;52.452;13.120;2023-03-01T08:29:43;-1.60;99.90
3980;DHT22;2004;52.452;13.120;2023-03-01T08:37:34;-1.30;99.90
3980;DHT22;2004;52.452;13.120;2023-03-01T08:45:25;-1.00;99.90
3980;DHT22;2004;52.452;13.120;2023-03-01T08:53:15;-0.80;99.90
3980;DHT22;2004;52.452;13.120;2023-03-01T09:01:17;-0.50;99.90
3980;DHT22;2004;52.452;13.120;2023-03-01T09:09:14;-0.20;99.90
3980;DHT22;2004;52.452;13.120;2023-03-01T09:17:05;0.10;99.90
3980;DHT22;2004;52.452;13.120;2023-03-01T09:24:56;0.40;99.90
3980;DHT22;2004;52.452;13.120;2023-03-01T09:32:49;1.20;99.90
3980;DHT22;2004;52.452;13.120;2023-03-01T09:40:43;1.90;99.90
3980;DHT22;2004;52.452;13.120;2023-03-01T09:49:24;2.40;97.90
3980;DHT22;2004;52.452;13.120;2023-03-01T10:04:55;3.00;93.30
3980;DHT22;2004;52.452;13.120;2023-03-01T10:12:48;3.00;92.20
3980;DHT22;2004;52.452;13.120;2023-03-01T10:20:46;3.10;90.80
3980;DHT22;2004;52.452;13.120;2023-03-01T10:29:08;3.00;89.40
3980;DHT22;2004;52.452;13.120;2023-03-01T10:37:16;3.10;88.50
3980;DHT22;2004;52.452;13.120;2023-03-01T10:53:26;3.30;87.40
3980;DHT22;2004;52.452;13.120;2023-03-01T11:09:15;3.60;82.30
3980;DHT22;2004;52.452;13.120;2023-03-01T11:17:21;3.70;81.70
3980;DHT22;2004;52.452;13.120;2023-03-01T11:25:14;4.00;82.10
3980;DHT22;2004;52.452;13.120;2023-03-01T11:33:13;4.20;80.40
3980;DHT22;2004;52.452;13.120;2023-03-01T11:49:14;4.50;77.80
3980;DHT22;2004;52.452;13.120;2023-03-01T11:57:37;4.60;79.50
3980;DHT22;2004;52.452;13.120;2023-03-01T12:05:39;4.70;76.40
3980;DHT22;2004;52.452;13.120;2023-03-01T12:30:17;4.90;71.10
3980;DHT22;2004;52.452;13.120;2023-03-01T12:38:32;5.00;68.80
3980;DHT22;2004;52.452;13.120;2023-03-01T12:55:01;5.20;69.00
3980;DHT22;2004;52.452;13.120;2023-03-01T13:03:19;5.30;64.70
3980;DHT22;2004;52.452;13.120;2023-03-01T13:11:23;5.50;59.50
3980;DHT22;2004;52.452;13.120;2023-03-01T13:34:59;5.70;60.10
3980;DHT22;2004;52.452;13.120;2023-03-01T13:42:55;5.70;58.30
3980;DHT22;2004;52.452;13.120;2023-03-01T13:50:50;5.60;59.90
3980;DHT22;2004;52.452;13.120;2023-03-01T13:58:55;5.60;58.40
3980;DHT22;2004;52.452;13.120;2023-03-01T14:06:47;5.90;56.50
3980;DHT22;2004;52.452;13.120;2023-03-01T14:15:08;5.80;57.50
3980;DHT22;2004;52.452;13.120;2023-03-01T14:23:13;6.00;56.30
3980;DHT22;2004;52.452;13.120;2023-03-01T14:31:44;6.00;55.40
3980;DHT22;2004;52.452;13.120;2023-03-01T14:39:35;6.00;58.00
3980;DHT22;2004;52.452;13.120;2023-03-01T14:47:34;6.00;57.60
3980;DHT22;2004;52.452;13.120;2023-03-01T14:55:37;6.10;57.00
3980;DHT22;2004;52.452;13.120;2023-03-01T15:03:41;6.20;56.30
3980;DHT22;2004;52.452;13.120;2023-03-01T15:11:34;6.20;57.50
3980;DHT22;2004;52.452;13.120;2023-03-01T15:19:27;6.20;57.20
3980;DHT22;2004;52.452;13.120;2023-03-01T15:27:24;6.30;57.50
3980;DHT22;2004;52.452;13.120;2023-03-01T15:35:39;6.30;57.40
3980;DHT22;2004;52.452;13.120;2023-03-01T15:43:39;6.40;56.60
3980;DHT22;2004;52.452;13.120;2023-03-01T15:51:35;6.30;58.80
3980;DHT22;2004;52.452;13.120;2023-03-01T15:59:26;6.20;57.40
3980;DHT22;2004;52.452;13.120;2023-03-01T16:07:17;6.10;61.00
3980;DHT22;2004;52.452;13.120;2023-03-01T16:15:17;6.00;60.60
3980;DHT22;2004;52.452;13.120;2023-03-01T16:23:10;5.90;61.50
3980;DHT22;2004;52.452;13.120;2023-03-01T16:31:01;5.80;62.60
3980;DHT22;2004;52.452;13.120;2023-03-01T16:38:52;5.60;63.10
3980;DHT22;2004;52.452;13.120;2023-03-01T16:46:43;5.40;64.90
3980;DHT22;2004;52.452;13.120;2023-03-01T16:54:33;5.20;67.50
3980;DHT22;2004;52.452;13.120;2023-03-01T17:02:24;5.00;66.70
3980;DHT22;2004;52.452;13.120;2023-03-01T17:10:14;4.80;68.60
3980;DHT22;2004;52.452;13.120;2023-03-01T17:18:05;4.60;69.40
3980;DHT22;2004;52.452;13.120;2023-03-01T17:25:56;4.40;70.90
3980;DHT22;2004;52.452;13.120;2023-03-01T17:33:46;4.20;72.30
3980;DHT22;2004;52.452;13.120;2023-03-01T17:41:37;4.00;73.40
3980;DHT22;2004;52.452;13.120;2023-03-01T17:49:27;3.80;74.00
3980;DHT22;2004;52.452;13.120;2023-03-01T17:57:18;3.50;75.50
3980;DHT22;2004;52.452;13.120;2023-03-01T18:05:09;3.30;76.70
3980;DHT22;2004;52.452;13.120;2023-03-01T18:13:00;3.20;77.80
3980;DHT22;2004;52.452;13.120;2023-03-01T18:28:32;2.80;79.90
3980;DHT22;2004;52.452;13.120;2023-03-01T18:36:28;2.60;81.00
3980;DHT22;2004;52.452;13.120;2023-03-01T18:44:19;2.50;81.80
3980;DHT22;2004;52.452;13.120;2023-03-01T18:52:09;2.30;82.60
3980;DHT22;2004;52.452;13.120;2023-03-01T19:07:40;2.00;84.80
3980;DHT22;2004;52.452;13.120;2023-03-01T19:15:31;1.80;85.60
3980;DHT22;2004;52.452;13.120;2023-03-01T19:23:25;1.70;87.00
3980;DHT22;2004;52.452;13.120;2023-03-01T19:31:18;1.50;87.30
3980;DHT22;2004;52.452;13.120;2023-03-01T19:39:10;1.40;88.20
3980;DHT22;2004;52.452;13.120;2023-03-01T19:47:02;1.30;89.30
3980;DHT22;2004;52.452;13.120;2023-03-01T19:54:53;1.20;90.50
3980;DHT22;2004;52.452;13.120;2023-03-01T20:02:43;1.10;91.10
3980;DHT22;2004;52.452;13.120;2023-03-01T20:10:34;1.00;91.70
3980;DHT22;2004;52.452;13.120;2023-03-01T20:18:28;0.90;92.50
3980;DHT22;2004;52.452;13.120;2023-03-01T20:26:20;0.80;93.40
3980;DHT22;2004;52.452;13.120;2023-03-01T20:34:11;0.70;94.70
3980;DHT22;2004;52.452;13.120;2023-03-01T20:42:02;0.60;96.70
3980;DHT22;2004;52.452;13.120;2023-03-01T20:49:54;0.50;98.70
3980;DHT22;2004;52.452;13.120;2023-03-01T20:57:48;0.50;99.90
3980;DHT22;2004;52.452;13.120;2023-03-01T21:05:38;0.40;99.90
3980;DHT22;2004;52.452;13.120;2023-03-01T21:13:30;0.30;99.90
3980;DHT22;2004;52.452;13.120;2023-03-01T21:21:22;0.30;99.90
3980;DHT22;2004;52.452;13.120;2023-03-01T21:29:13;0.20;99.90
3980;DHT22;2004;52.452;13.120;2023-03-01T21:37:04;0.10;99.90
3980;DHT22;2004;52.452;13.120;2023-03-01T21:44:54;0.00;99.90
3980;DHT22;2004;52.452;13.120;2023-03-01T21:52:45;0.00;99.90
3980;DHT22;2004;52.452;13.120;2023-03-01T22:00:35;0.00;99.90
3980;DHT22;2004;52.452;13.120;2023-03-01T22:08:28;-0.20;99.90
3980;DHT22;2004;52.452;13.120;2023-03-01T22:16:22;-0.20;99.90
3980;DHT22;2004;52.452;13.120;2023-03-01T22:24:13;-0.20;99.90
3980;DHT22;2004;52.452;13.120;2023-03-01T22:32:07;-0.30;99.90
3980;DHT22;2004;52.452;13.120;2023-03-01T22:39:59;-0.30;99.90
3980;DHT22;2004;52.452;13.120;2023-03-01T22:47:49;-0.30;99.90
3980;DHT22;2004;52.452;13.120;2023-03-01T22:55:40;-0.40;99.90
3980;DHT22;2004;52.452;13.120;2023-03-01T23:03:31;-0.40;99.90
3980;DHT22;2004;52.452;13.120;2023-03-01T23:11:23;-0.40;99.90
3980;DHT22;2004;52.452;13.120;2023-03-01T23:19:14;-0.50;99.90
3980;DHT22;2004;52.452;13.120;2023-03-01T23:27:06;-0.50;99.90
3980;DHT22;2004;52.452;13.120;2023-03-01T23:34:57;-0.60;99.90
3980;DHT22;2004;52.452;13.120;2023-03-01T23:42:47;-0.60;99.90
3980;DHT22;2004;52.452;13.120;2023-03-01T23:50:39;-0.70;99.90
3980;DHT22;2004;52.452;13.120;2023-03-01T23:58:38;-0.70;99.90
